createdAt,value
2023-03-11T00:00:06.157Z,0.00
2023-03-11T00:01:06.514Z,0.00
2023-03-11T00:02:06.955Z,0.00
2023-03-11T00:03:07.199Z,0.00
2023-03-11T00:04:07.582Z,0.00
2023-03-11T00:05:07.914Z,0.00
2023-03-11T00:06:08.237Z,0.00
2023-03-11T00:07:08.580Z,0.00
2023-03-11T00:08:08.966Z,0.00
2023-03-11T00:09:09.276Z,0.00
2023-03-11T00:10:09.625Z,0.00
2023-03-11T00:11:09.988Z,0.00
2023-03-11T00:12:10.298Z,0.00
2023-03-11T00:13:10.656Z,0.00
2023-03-11T00:14:11.041Z,0.00
2023-03-11T00:15:11.350Z,0.00
2023-03-11T00:16:11.753Z,0.00
2023-03-11T00:17:12.039Z,0.00
2023-03-11T00:18:12.390Z,0.00
2023-03-11T00:19:12.760Z,0.00
2023-03-11T00:20:13.079Z,0.00
2023-03-11T00:21:13.414Z,0.00
2023-03-11T00:22:13.811Z,0.00
2023-03-11T00:23:14.156Z,0.00
2023-03-11T00:24:14.537Z,0.00
2023-03-11T00:25:14.831Z,0.00
2023-03-11T00:26:15.148Z,0.00
2023-03-11T00:27:15.488Z,0.00
2023-03-11T00:28:15.848Z,0.00
2023-03-11T00:29:16.213Z,0.00
2023-03-11T00:30:16.624Z,0.00
2023-03-11T00:31:17.014Z,0.00
2023-03-11T00:32:17.344Z,0.00
2023-03-11T00:33:17.625Z,0.00
2023-03-11T00:34:18.049Z,0.00
2023-03-11T00:35:18.327Z,0.00
2023-03-11T00:36:18.641Z,0.00
2023-03-11T00:37:19.018Z,0.00
2023-03-11T00:38:19.430Z,0.00
2023-03-11T00:39:19.722Z,0.00
2023-03-11T00:40:20.054Z,0.00
2023-03-11T00:41:20.426Z,0.00
2023-03-11T00:42:20.713Z,0.00
2023-03-11T00:43:21.086Z,0.00
2023-03-11T00:44:21.415Z,0.00
2023-03-11T00:45:21.826Z,0.00
2023-03-11T00:46:22.210Z,0.00
2023-03-11T00:47:22.493Z,0.00
2023-03-11T00:48:22.859Z,0.00
2023-03-11T00:49:23.201Z,0.00
2023-03-11T00:50:23.515Z,0.00
2023-03-11T00:51:23.891Z,0.00
2023-03-11T00:52:24.243Z,0.00
2023-03-11T00:53:24.569Z,0.00
2023-03-11T00:54:24.948Z,0.00
2023-03-11T00:55:25.272Z,0.00
2023-03-11T00:56:25.615Z,0.00
2023-03-11T00:57:25.950Z,0.00
2023-03-11T00:58:26.318Z,0.00
2023-03-11T00:59:26.657Z,0.00
2023-03-11T01:00:27.025Z,0.00
2023-03-11T01:01:27.441Z,0.00
2023-03-11T01:02:27.742Z,0.00
2023-03-11T01:03:28.060Z,0.00
2023-03-11T01:04:28.510Z,0.00
2023-03-11T01:05:28.783Z,0.00
2023-03-11T01:06:39.248Z,0.00
2023-03-11T01:07:29.565Z,0.00
2023-03-11T01:08:29.892Z,0.00
2023-03-11T01:09:30.272Z,0.00
2023-03-11T01:10:30.588Z,0.00
2023-03-11T01:11:30.925Z,0.00
2023-03-11T01:12:31.335Z,0.00
2023-03-11T01:13:31.660Z,0.00
2023-03-11T01:14:32.046Z,0.00
2023-03-11T01:15:32.441Z,0.00
2023-03-11T01:16:32.690Z,0.00
2023-03-11T01:17:33.139Z,0.00
2023-03-11T01:18:33.425Z,0.00
2023-03-11T01:19:33.835Z,0.00
2023-03-11T01:20:34.250Z,0.00
2023-03-11T01:21:34.528Z,0.00
2023-03-11T01:22:34.879Z,0.00
2023-03-11T01:23:35.219Z,0.00
2023-03-11T01:24:35.618Z,0.00
2023-03-11T01:25:35.921Z,0.00
2023-03-11T01:26:36.270Z,0.00
2023-03-11T01:27:36.668Z,0.00
2023-03-11T01:28:36.994Z,0.00
2023-03-11T01:29:37.392Z,0.00
2023-03-11T01:30:37.744Z,0.00
2023-03-11T01:31:38.075Z,0.00
2023-03-11T01:32:38.537Z,0.00
2023-03-11T01:33:38.792Z,0.00
2023-03-11T01:34:39.220Z,0.00
2023-03-11T01:35:39.573Z,0.00
2023-03-11T01:36:39.902Z,0.00
2023-03-11T01:37:40.259Z,0.00
2023-03-11T01:38:40.620Z,0.00
2023-03-11T01:39:41.009Z,0.00
2023-03-11T01:40:41.362Z,0.00
2023-03-11T01:41:41.719Z,0.00
2023-03-11T01:42:42.081Z,0.00
2023-03-11T01:43:42.439Z,0.00
2023-03-11T01:44:42.823Z,0.00
2023-03-11T01:45:43.153Z,0.00
2023-03-11T01:46:43.532Z,0.00
2023-03-11T01:47:43.886Z,0.00
2023-03-11T01:48:44.223Z,0.00
2023-03-11T01:49:44.619Z,0.00
2023-03-11T01:50:44.951Z,0.00
2023-03-11T01:51:45.302Z,0.00
2023-03-11T01:52:45.654Z,0.00
2023-03-11T01:53:46.016Z,0.00
2023-03-11T01:54:46.409Z,0.00
2023-03-11T01:55:46.793Z,0.00
2023-03-11T01:56:47.157Z,0.00
2023-03-11T01:57:47.505Z,0.00
2023-03-11T01:58:47.853Z,0.00
2023-03-11T01:59:50.427Z,0.00
2023-03-11T02:00:48.582Z,0.00
2023-03-11T02:01:49.932Z,0.00
2023-03-11T02:02:49.419Z,0.00
2023-03-11T02:03:49.638Z,0.00
2023-03-11T02:04:50.012Z,0.00
2023-03-11T02:05:50.361Z,0.00
2023-03-11T02:06:53.671Z,0.00
2023-03-11T02:07:51.086Z,0.00
2023-03-11T02:08:51.468Z,0.00
2023-03-11T02:09:51.814Z,0.00
2023-03-11T02:10:52.168Z,0.00
2023-03-11T02:11:52.520Z,0.00
2023-03-11T02:12:52.854Z,0.00
2023-03-11T02:13:53.212Z,0.00
2023-03-11T02:14:53.661Z,0.00
2023-03-11T02:15:53.998Z,0.00
2023-03-11T02:16:54.350Z,0.00
2023-03-11T02:17:54.697Z,0.00
2023-03-11T02:18:55.017Z,0.00
2023-03-11T02:19:55.410Z,0.00
2023-03-11T02:20:55.756Z,0.00
2023-03-11T02:21:56.124Z,0.00
2023-03-11T02:22:56.456Z,0.00
2023-03-11T02:23:56.813Z,0.00
2023-03-11T02:24:57.214Z,0.00
2023-03-11T02:25:57.588Z,0.00
2023-03-11T02:26:57.907Z,0.00
2023-03-11T02:27:58.250Z,0.00
2023-03-11T02:28:58.642Z,0.00
2023-03-11T02:29:58.986Z,0.00
2023-03-11T02:30:59.397Z,0.00
2023-03-11T02:31:59.692Z,0.00
2023-03-11T02:33:00.025Z,0.00
2023-03-11T02:34:00.413Z,0.00
2023-03-11T02:35:00.773Z,0.00
2023-03-11T02:36:01.169Z,0.00
2023-03-11T02:37:01.439Z,0.00
2023-03-11T02:38:01.844Z,0.00
2023-03-11T02:39:02.174Z,0.00
2023-03-11T02:40:02.611Z,0.00
2023-03-11T02:41:02.905Z,0.00
2023-03-11T02:42:03.239Z,0.00
2023-03-11T02:43:03.620Z,0.00
2023-03-11T02:44:03.966Z,0.00
2023-03-11T02:45:04.422Z,0.00
2023-03-11T02:46:04.687Z,0.00
2023-03-11T02:47:05.124Z,0.00
2023-03-11T02:48:05.431Z,0.00
2023-03-11T02:49:05.771Z,0.00
2023-03-11T02:50:06.189Z,0.00
2023-03-11T02:51:06.493Z,0.00
2023-03-11T02:52:06.864Z,0.00
2023-03-11T02:53:07.200Z,0.00
2023-03-11T02:54:07.541Z,0.00
2023-03-11T02:55:07.930Z,0.00
2023-03-11T02:56:08.241Z,0.00
2023-03-11T02:57:08.599Z,0.00
2023-03-11T02:58:09.005Z,0.00
2023-03-11T02:59:09.313Z,0.00
2023-03-11T03:00:09.683Z,0.00
2023-03-11T03:01:10.136Z,0.00
2023-03-11T03:02:10.401Z,0.00
2023-03-11T03:03:10.766Z,0.00
2023-03-11T03:04:11.185Z,0.00
2023-03-11T03:05:11.510Z,0.00
2023-03-11T03:06:11.838Z,0.00
2023-03-11T03:07:12.239Z,0.00
2023-03-11T03:08:12.571Z,0.00
2023-03-11T03:09:12.947Z,0.00
2023-03-11T03:10:13.296Z,0.00
2023-03-11T03:11:13.601Z,0.00
2023-03-11T03:12:14.023Z,0.00
2023-03-11T03:13:14.326Z,0.00
2023-03-11T03:14:14.692Z,0.00
2023-03-11T03:15:15.068Z,0.00
2023-03-11T03:16:15.393Z,0.00
2023-03-11T03:17:15.774Z,0.00
2023-03-11T03:18:16.100Z,0.00
2023-03-11T03:19:16.469Z,0.00
2023-03-11T03:20:16.853Z,0.00
2023-03-11T03:21:17.180Z,0.00
2023-03-11T03:22:17.571Z,0.00
2023-03-11T03:23:17.912Z,0.00
2023-03-11T03:24:18.295Z,0.00
2023-03-11T03:25:18.661Z,0.00
2023-03-11T03:26:19.025Z,0.00
2023-03-11T03:27:19.382Z,0.00
2023-03-11T03:28:19.888Z,0.00
2023-03-11T03:29:20.106Z,0.00
2023-03-11T03:30:20.504Z,0.00
2023-03-11T03:31:20.894Z,0.00
2023-03-11T03:32:21.227Z,0.00
2023-03-11T03:33:21.532Z,0.00
2023-03-11T03:34:21.911Z,0.00
2023-03-11T03:35:22.311Z,0.00
2023-03-11T03:36:22.602Z,0.00
2023-03-11T03:37:22.961Z,0.00
2023-03-11T03:38:23.322Z,0.00
2023-03-11T03:39:23.689Z,0.00
2023-03-11T03:40:24.055Z,0.00
2023-03-11T03:41:24.429Z,0.00
2023-03-11T03:42:24.771Z,0.00
2023-03-11T03:43:25.085Z,0.00
2023-03-11T03:44:25.505Z,0.00
2023-03-11T03:45:25.872Z,0.00
2023-03-11T03:46:26.306Z,0.00
2023-03-11T03:47:26.604Z,0.00
2023-03-11T03:48:26.966Z,0.00
2023-03-11T03:49:27.315Z,0.00
2023-03-11T03:50:27.692Z,0.00
2023-03-11T03:51:28.013Z,0.00
2023-03-11T03:52:28.415Z,0.00
2023-03-11T03:53:28.744Z,0.00
2023-03-11T03:54:29.127Z,0.00
2023-03-11T03:55:29.477Z,0.00
2023-03-11T03:56:29.881Z,0.00
2023-03-11T03:57:30.202Z,0.00
2023-03-11T03:58:30.563Z,0.00
2023-03-11T03:59:30.926Z,0.00
2023-03-11T04:00:31.280Z,0.00
2023-03-11T04:01:31.623Z,0.00
2023-03-11T04:02:32.051Z,0.00
2023-03-11T04:03:32.410Z,0.00
2023-03-11T04:04:32.709Z,0.00
2023-03-11T04:05:33.060Z,0.00
2023-03-11T04:06:33.424Z,0.00
2023-03-11T04:07:33.784Z,0.00
2023-03-11T04:08:34.125Z,0.00
2023-03-11T04:09:34.489Z,0.00
2023-03-11T04:10:34.854Z,0.00
2023-03-11T04:11:35.204Z,0.00
2023-03-11T04:12:35.560Z,0.00
2023-03-11T04:13:35.932Z,0.00
2023-03-11T04:14:36.255Z,0.00
2023-03-11T04:15:36.667Z,0.00
2023-03-11T04:16:37.058Z,0.00
2023-03-11T04:17:37.422Z,0.00
2023-03-11T04:18:37.777Z,0.00
2023-03-11T04:19:38.132Z,0.00
2023-03-11T04:20:38.489Z,0.00
2023-03-11T04:21:38.838Z,0.00
2023-03-11T04:22:39.172Z,0.00
2023-03-11T04:23:39.570Z,0.00
2023-03-11T04:24:39.909Z,0.00
2023-03-11T04:25:40.293Z,0.00
2023-03-11T04:26:40.655Z,0.00
2023-03-11T04:27:41.049Z,0.00
2023-03-11T04:28:41.344Z,0.00
2023-03-11T04:29:41.740Z,0.00
2023-03-11T04:30:42.201Z,0.00
2023-03-11T04:31:42.429Z,0.00
2023-03-11T04:32:42.781Z,0.00
2023-03-11T04:33:43.113Z,0.00
2023-03-11T04:34:43.453Z,0.00
2023-03-11T04:35:43.906Z,0.00
2023-03-11T04:36:44.174Z,0.00
2023-03-11T04:37:44.563Z,0.00
2023-03-11T04:38:44.878Z,0.00
2023-03-11T04:39:45.225Z,0.00
2023-03-11T04:40:45.634Z,0.00
2023-03-11T04:41:45.954Z,0.00
2023-03-11T04:42:46.328Z,0.00
2023-03-11T04:43:46.680Z,0.00
2023-03-11T04:44:47.022Z,0.00
2023-03-11T04:45:47.511Z,0.00
2023-03-11T04:46:47.729Z,0.00
2023-03-11T04:47:48.077Z,0.00
2023-03-11T04:48:48.417Z,0.00
2023-03-11T04:49:48.758Z,0.00
2023-03-11T04:50:49.170Z,0.00
2023-03-11T04:51:49.500Z,0.00
2023-03-11T04:52:49.848Z,0.00
2023-03-11T04:53:50.225Z,0.00
2023-03-11T04:54:50.582Z,0.00
2023-03-11T04:55:50.939Z,0.00
2023-03-11T04:56:51.278Z,0.00
2023-03-11T04:57:51.665Z,0.00
2023-03-11T04:58:52.004Z,0.00
2023-03-11T04:59:52.360Z,0.00
2023-03-11T05:00:52.735Z,0.00
2023-03-11T05:01:53.115Z,0.00
2023-03-11T05:02:53.512Z,0.00
2023-03-11T05:03:53.756Z,0.00
2023-03-11T05:04:54.172Z,0.00
2023-03-11T05:05:54.470Z,0.00
2023-03-11T05:06:54.822Z,0.00
2023-03-11T05:07:55.160Z,0.00
2023-03-11T05:08:55.529Z,0.00
2023-03-11T05:09:55.875Z,0.00
2023-03-11T05:10:56.259Z,0.00
2023-03-11T05:11:56.617Z,0.00
2023-03-11T05:12:56.996Z,0.00
2023-03-11T05:13:57.381Z,0.00
2023-03-11T05:14:57.735Z,0.00
2023-03-11T05:15:58.192Z,0.00
2023-03-11T05:16:58.487Z,0.00
2023-03-11T05:17:58.602Z,0.00
2023-03-11T05:18:58.879Z,0.00
2023-03-11T05:19:59.172Z,0.00
2023-03-11T05:21:00.542Z,0.00
2023-03-11T05:21:59.680Z,0.00
2023-03-11T05:22:59.951Z,0.00
2023-03-11T05:24:00.224Z,0.00
2023-03-11T05:25:00.516Z,0.00
2023-03-11T05:26:00.687Z,0.00
2023-03-11T05:27:00.844Z,0.00
2023-03-11T05:28:01.009Z,0.00
2023-03-11T05:29:01.306Z,0.00
2023-03-11T05:30:01.577Z,0.00
2023-03-11T05:31:01.965Z,0.00
2023-03-11T05:32:02.045Z,0.00
2023-03-11T05:33:02.207Z,0.00
2023-03-11T05:34:02.356Z,0.00
2023-03-11T05:35:02.546Z,0.00
2023-03-11T05:36:02.840Z,0.00
2023-03-11T05:37:03.392Z,0.00
2023-03-11T05:38:03.068Z,0.00
2023-03-11T05:39:03.259Z,0.00
2023-03-11T05:40:03.425Z,0.00
2023-03-11T05:41:03.641Z,0.00
2023-03-11T05:42:03.780Z,0.00
2023-03-11T05:43:03.963Z,0.00
2023-03-11T05:44:04.103Z,0.00
2023-03-11T05:45:04.294Z,0.00
2023-03-11T05:46:04.527Z,0.00
2023-03-11T05:47:04.607Z,0.00
2023-03-11T05:48:04.800Z,0.00
2023-03-11T05:49:04.969Z,0.00
2023-03-11T05:50:05.147Z,0.00
2023-03-11T05:51:05.335Z,5.62
2023-03-11T05:52:05.481Z,5.62
2023-03-11T05:53:05.648Z,5.62
2023-03-11T05:54:05.953Z,5.62
2023-03-11T05:55:06.131Z,5.62
2023-03-11T05:56:06.445Z,5.62
2023-03-11T05:57:06.614Z,5.62
2023-03-11T05:58:06.830Z,5.62
2023-03-11T05:59:06.958Z,11.25
2023-03-11T06:00:07.180Z,11.25
2023-03-11T06:01:07.477Z,11.25
2023-03-11T06:02:07.627Z,11.25
2023-03-11T06:03:07.817Z,11.25
2023-03-11T06:04:08.164Z,11.25
2023-03-11T06:05:08.680Z,16.88
2023-03-11T06:06:08.334Z,16.88
2023-03-11T06:07:08.495Z,16.88
2023-03-11T06:08:08.667Z,16.88
2023-03-11T06:09:08.872Z,16.88
2023-03-11T06:10:09.018Z,16.88
2023-03-11T06:11:09.343Z,22.50
2023-03-11T06:12:09.618Z,22.50
2023-03-11T06:13:09.819Z,22.50
2023-03-11T06:14:09.977Z,22.50
2023-03-11T06:15:10.281Z,22.50
2023-03-11T06:16:10.537Z,22.50
2023-03-11T06:17:10.651Z,28.12
2023-03-11T06:18:10.954Z,28.12
2023-03-11T06:19:11.163Z,28.12
2023-03-11T06:20:11.316Z,28.12
2023-03-11T06:21:11.493Z,28.12
2023-03-11T06:22:11.685Z,33.75
2023-03-11T06:23:11.972Z,33.75
2023-03-11T06:24:12.166Z,33.75
2023-03-11T06:25:12.335Z,33.75
2023-03-11T06:26:12.564Z,33.75
2023-03-11T06:27:12.853Z,33.75
2023-03-11T06:28:13.008Z,39.38
2023-03-11T06:29:13.186Z,39.38
2023-03-11T06:30:13.384Z,39.38
2023-03-11T06:31:13.646Z,39.38
2023-03-11T06:32:13.891Z,39.38
2023-03-11T06:33:14.053Z,39.38
2023-03-11T06:34:14.199Z,45.00
2023-03-11T06:35:14.370Z,45.00
2023-03-11T06:36:14.593Z,45.00
2023-03-11T06:37:14.865Z,45.00
2023-03-11T06:38:15.181Z,45.00
2023-03-11T06:39:15.340Z,45.00
2023-03-11T06:40:15.672Z,45.00
2023-03-11T06:41:15.824Z,45.00
2023-03-11T06:42:15.967Z,45.00
2023-03-11T06:43:16.270Z,45.00
2023-03-11T06:44:16.567Z,45.00
2023-03-11T06:45:18.853Z,45.00
2023-03-11T06:46:17.114Z,45.00
2023-03-11T06:47:17.144Z,50.62
2023-03-11T06:48:17.328Z,50.62
2023-03-11T06:49:17.479Z,50.62
2023-03-11T06:50:17.696Z,56.25
2023-03-11T06:51:17.988Z,56.25
2023-03-11T06:52:18.153Z,56.25
2023-03-11T06:53:18.313Z,56.25
2023-03-11T06:54:18.527Z,56.25
2023-03-11T06:55:18.721Z,56.25
2023-03-11T06:56:19.020Z,61.88
2023-03-11T06:57:19.312Z,61.88
2023-03-11T06:58:19.487Z,61.88
2023-03-11T06:59:19.654Z,61.88
2023-03-11T07:00:19.874Z,61.88
2023-03-11T07:01:20.134Z,61.88
2023-03-11T07:02:20.340Z,61.88
2023-03-11T07:03:20.528Z,67.50
2023-03-11T07:04:20.875Z,67.50
2023-03-11T07:05:21.033Z,67.50
2023-03-11T07:06:21.322Z,67.50
2023-03-11T07:07:21.520Z,67.50
2023-03-11T07:08:21.675Z,67.50
2023-03-11T07:09:21.958Z,67.50
2023-03-11T07:10:22.131Z,73.12
2023-03-11T07:11:22.409Z,73.12
2023-03-11T07:12:23.009Z,73.12
2023-03-11T07:13:22.689Z,73.12
2023-03-11T07:14:23.159Z,73.12
2023-03-11T07:15:23.076Z,73.12
2023-03-11T07:16:23.340Z,73.12
2023-03-11T07:17:23.414Z,73.12
2023-03-11T07:18:23.609Z,73.12
2023-03-11T09:20:38.144Z,73.12
2023-03-11T09:20:43.229Z,129.38
2023-03-11T09:21:43.378Z,129.38
2023-03-11T09:22:43.537Z,129.38
2023-03-11T09:23:44.590Z,129.38
2023-03-11T09:24:43.904Z,135.00
2023-03-11T09:25:44.089Z,135.00
2023-03-11T09:26:44.306Z,135.00
2023-03-11T09:27:44.522Z,135.00
2023-03-11T09:28:44.645Z,135.00
2023-03-11T09:29:44.865Z,135.00
2023-03-11T09:30:45.035Z,135.00
2023-03-11T09:31:45.282Z,135.00
2023-03-11T09:32:45.432Z,135.00
2023-03-11T09:33:45.518Z,135.00
2023-03-11T09:34:45.716Z,140.62
2023-03-11T09:35:45.951Z,140.62
2023-03-11T09:36:46.063Z,140.62
2023-03-11T09:37:46.249Z,140.62
2023-03-11T09:38:46.399Z,146.25
2023-03-11T09:39:46.579Z,146.25
2023-03-11T09:40:47.255Z,146.25
2023-03-11T09:41:57.591Z,146.25
2023-03-11T09:42:47.380Z,146.25
2023-03-11T09:43:47.674Z,146.25
2023-03-11T09:44:47.979Z,146.25
2023-03-11T09:45:48.140Z,146.25
2023-03-11T09:46:48.457Z,146.25
2023-03-11T09:47:48.494Z,146.25
2023-03-11T09:48:48.778Z,146.25
2023-03-11T09:49:49.004Z,151.88
2023-03-11T09:50:49.281Z,151.88
2023-03-11T09:51:49.449Z,151.88
2023-03-11T09:52:49.615Z,151.88
2023-03-11T09:53:49.834Z,151.88
2023-03-11T09:54:49.998Z,157.50
2023-03-11T09:55:50.163Z,157.50
2023-03-11T09:56:50.366Z,157.50
2023-03-11T09:57:50.527Z,163.12
2023-03-11T09:58:50.732Z,163.12
2023-03-11T09:59:51.004Z,168.75
2023-03-11T10:00:51.163Z,168.75
2023-03-11T10:01:51.419Z,168.75
2023-03-11T10:02:51.773Z,168.75
2023-03-11T10:03:51.844Z,174.38
2023-03-11T10:04:52.157Z,168.75
2023-03-11T10:05:52.343Z,174.38
2023-03-11T10:06:52.626Z,174.38
2023-03-11T10:07:52.804Z,174.38
2023-03-11T10:08:52.994Z,174.38
2023-03-11T10:09:53.156Z,174.38
2023-03-11T10:10:53.356Z,174.38
2023-03-11T10:11:53.548Z,174.38
2023-03-11T10:12:53.697Z,174.38
2023-03-11T10:13:53.875Z,174.38
2023-03-11T10:14:54.057Z,174.38
2023-03-11T10:15:54.228Z,174.38
2023-03-11T10:16:54.430Z,180.00
2023-03-11T10:17:54.579Z,180.00
2023-03-11T10:18:54.749Z,180.00
2023-03-11T10:19:54.930Z,180.00
2023-03-11T10:20:55.095Z,185.62
2023-03-11T10:21:55.301Z,191.25
2023-03-11T10:22:55.438Z,196.88
2023-03-11T10:23:55.601Z,219.38
2023-03-11T10:24:55.785Z,309.38
2023-03-11T10:25:55.981Z,562.50
2023-03-11T10:26:56.173Z,905.62
2023-03-11T10:27:56.336Z,1125.00
2023-03-11T10:28:56.529Z,1192.50
2023-03-11T10:29:56.729Z,1237.50
2023-03-11T10:30:56.915Z,1366.88
2023-03-11T10:31:57.250Z,1260.00
2023-03-11T10:32:57.361Z,1282.50
2023-03-11T10:33:57.491Z,1299.38
2023-03-11T10:34:57.761Z,1321.88
2023-03-11T10:35:57.922Z,1316.25
2023-03-11T10:36:58.111Z,1327.50
2023-03-11T10:37:58.294Z,1305.00
2023-03-11T10:38:58.451Z,1299.38
2023-03-11T10:39:58.646Z,1299.38
2023-03-11T10:40:58.844Z,1293.75
2023-03-11T10:41:59.102Z,1288.12
2023-03-11T10:42:59.235Z,1288.12
2023-03-11T10:43:59.414Z,1276.88
2023-03-11T10:44:59.647Z,1276.88
2023-03-11T10:45:59.926Z,1276.88
2023-03-11T10:46:59.971Z,1271.25
2023-03-11T10:48:00.159Z,1271.25
2023-03-11T10:49:00.307Z,1288.12
2023-03-11T10:50:00.461Z,1276.88
2023-03-11T10:51:00.662Z,1305.00
2023-03-11T10:52:00.882Z,1299.38
2023-03-11T10:53:01.020Z,1282.50
2023-03-11T10:54:01.219Z,1288.12
2023-03-11T10:55:01.378Z,1288.12
2023-03-11T10:56:01.579Z,1260.00
2023-03-11T10:57:01.785Z,1271.25
2023-03-11T10:58:01.979Z,1288.12
2023-03-11T10:59:02.192Z,1321.88
2023-03-11T11:00:02.370Z,1361.25
2023-03-11T11:01:02.698Z,1378.12
2023-03-11T11:02:02.810Z,1406.25
2023-03-11T11:03:02.939Z,1428.75
2023-03-11T11:04:03.167Z,1434.38
2023-03-11T11:05:03.317Z,1451.25
2023-03-11T11:06:03.576Z,1496.25
2023-03-11T11:07:03.740Z,1485.00
2023-03-11T11:08:03.890Z,1496.25
2023-03-11T11:09:04.089Z,1490.62
2023-03-11T11:10:04.269Z,1501.88
2023-03-11T11:11:04.449Z,1501.88
2023-03-11T11:12:04.650Z,1496.25
2023-03-11T11:13:04.785Z,1518.75
2023-03-11T11:14:04.992Z,1535.62
2023-03-11T11:15:05.512Z,1558.12
2023-03-11T11:16:05.355Z,1597.50
2023-03-11T11:17:05.615Z,1653.75
2023-03-11T11:18:05.705Z,1698.75
2023-03-11T11:19:05.880Z,1710.00
2023-03-11T11:20:06.128Z,1766.25
2023-03-11T11:21:06.547Z,1743.75
2023-03-11T11:22:09.433Z,1783.12
2023-03-11T11:23:07.068Z,1800.00
2023-03-11T11:24:06.852Z,1816.88
2023-03-11T11:25:07.039Z,1850.62
2023-03-11T11:26:07.227Z,1839.38
2023-03-11T11:27:07.398Z,1839.38
2023-03-11T11:28:07.598Z,1839.38
2023-03-11T11:29:09.103Z,1850.62
2023-03-11T11:30:07.960Z,1850.62
2023-03-11T11:31:08.203Z,1788.75
2023-03-11T11:32:08.358Z,1755.00
2023-03-11T11:33:08.601Z,1738.12
2023-03-11T11:34:08.738Z,1738.12
2023-03-11T11:35:09.010Z,1704.38
2023-03-11T11:36:09.292Z,1625.62
2023-03-11T11:37:09.347Z,1569.38
2023-03-11T11:38:09.511Z,1496.25
2023-03-11T11:39:09.675Z,1507.50
2023-03-11T11:40:11.247Z,1462.50
2023-03-11T11:41:10.034Z,1496.25
2023-03-11T11:42:10.259Z,1563.75
2023-03-11T11:43:10.510Z,1591.88
2023-03-11T11:44:10.566Z,1732.50
2023-03-11T11:45:10.847Z,1659.38
2023-03-11T11:46:10.989Z,1642.50
2023-03-11T11:47:11.185Z,1299.38
2023-03-11T11:48:11.501Z,1636.88
2023-03-11T11:49:12.161Z,1636.88
2023-03-11T11:50:11.774Z,1642.50
2023-03-11T11:51:12.560Z,1670.62
2023-03-11T11:52:12.211Z,1800.00
2023-03-11T11:53:12.253Z,1940.62
2023-03-11T11:54:12.521Z,1878.75
2023-03-11T11:55:12.609Z,1755.00
2023-03-11T11:56:12.835Z,1580.62
2023-03-11T11:57:13.014Z,1456.88
2023-03-11T11:58:13.176Z,1400.62
2023-03-11T11:59:13.339Z,1378.12
2023-03-11T12:00:13.542Z,1361.25
2023-03-11T12:01:13.727Z,1344.38
2023-03-11T12:02:13.923Z,1327.50
2023-03-11T12:03:14.099Z,1321.88
2023-03-11T12:04:14.297Z,1316.25
2023-03-11T12:05:14.531Z,1305.00
2023-03-11T12:06:14.737Z,1299.38
2023-03-11T12:07:14.858Z,1327.50
2023-03-11T12:08:15.043Z,1355.62
2023-03-11T12:09:15.479Z,1434.38
2023-03-11T12:10:22.830Z,1395.00
2023-03-11T12:11:15.907Z,1316.25
2023-03-11T12:12:15.799Z,1276.88
2023-03-11T12:13:16.135Z,1231.88
2023-03-11T12:14:16.230Z,1226.25
2023-03-11T12:15:16.413Z,1220.62
2023-03-11T12:16:16.659Z,1271.25
2023-03-11T12:17:16.858Z,1248.75
2023-03-11T12:18:16.943Z,1198.12
2023-03-11T12:19:17.371Z,1186.88
2023-03-11T12:20:17.302Z,1192.50
2023-03-11T12:21:17.487Z,1186.88
2023-03-11T12:22:17.682Z,1181.25
2023-03-11T12:23:18.131Z,1215.00
2023-03-11T12:24:18.017Z,1316.25
2023-03-11T12:25:18.206Z,1361.25
2023-03-11T12:26:18.547Z,1198.12
2023-03-11T12:27:18.605Z,1125.00
2023-03-11T12:28:18.824Z,1130.62
2023-03-11T12:29:19.842Z,1175.62
2023-03-11T12:30:19.173Z,1164.38
2023-03-11T12:31:19.442Z,1158.75
2023-03-11T12:32:19.620Z,1164.38
2023-03-11T12:33:19.787Z,1164.38
2023-03-11T12:34:19.915Z,1153.12
2023-03-11T12:35:20.252Z,995.62
2023-03-11T12:36:20.534Z,1001.25
2023-03-11T12:37:21.208Z,967.50
2023-03-11T12:38:20.925Z,956.25
2023-03-11T12:39:20.998Z,961.88
2023-03-11T12:40:21.196Z,967.50
2023-03-11T12:41:21.346Z,961.88
2023-03-11T12:42:21.556Z,990.00
2023-03-11T12:43:21.971Z,1035.00
2023-03-11T12:44:21.871Z,1080.00
2023-03-11T12:45:22.292Z,1113.75
2023-03-11T12:46:22.276Z,1125.00
2023-03-11T12:47:22.868Z,1057.50
2023-03-11T12:48:22.671Z,990.00
2023-03-11T12:49:22.885Z,956.25
2023-03-11T12:50:23.016Z,956.25
2023-03-11T12:51:23.212Z,967.50
2023-03-11T12:52:23.398Z,939.38
2023-03-11T12:53:23.544Z,933.75
2023-03-11T12:54:23.743Z,849.38
2023-03-11T12:55:23.947Z,978.75
2023-03-11T12:56:24.129Z,995.62
2023-03-11T12:57:24.321Z,517.50
2023-03-11T12:58:24.484Z,646.88
2023-03-11T12:59:24.646Z,495.00
2023-03-11T13:00:24.850Z,1080.00
2023-03-11T13:01:25.085Z,742.50
2023-03-11T13:02:25.209Z,1136.25
2023-03-11T13:03:25.369Z,1215.00
2023-03-11T13:04:25.569Z,646.88
2023-03-11T13:05:25.759Z,793.12
2023-03-11T13:06:26.014Z,1265.62
2023-03-11T13:07:26.144Z,1338.75
2023-03-11T13:08:26.333Z,1451.25
2023-03-11T13:09:27.152Z,1243.12
2023-03-11T13:10:26.769Z,1018.12
2023-03-11T13:11:26.854Z,877.50
2023-03-11T13:12:27.115Z,911.25
2023-03-11T13:13:27.242Z,916.88
2023-03-11T13:14:27.435Z,945.00
2023-03-11T13:15:27.620Z,781.88
2023-03-11T13:16:27.816Z,680.62
2023-03-11T13:17:28.014Z,1344.38
2023-03-11T13:18:28.166Z,748.12
2023-03-11T13:19:28.389Z,1170.00
2023-03-11T13:20:28.568Z,961.88
2023-03-11T13:21:28.748Z,973.12
2023-03-11T13:22:29.150Z,905.62
2023-03-11T13:23:29.092Z,421.88
2023-03-11T13:24:29.280Z,354.38
2023-03-11T13:25:29.465Z,399.38
2023-03-11T13:26:29.698Z,871.88
2023-03-11T13:27:29.873Z,601.88
2023-03-11T13:28:30.012Z,421.88
2023-03-11T13:29:30.194Z,528.75
2023-03-11T13:30:30.407Z,759.38
2023-03-11T13:31:30.822Z,573.75
2023-03-11T13:32:30.956Z,388.12
2023-03-11T13:33:31.044Z,444.38
2023-03-11T13:34:31.221Z,444.38
2023-03-11T13:35:31.540Z,461.25
2023-03-11T13:36:31.610Z,495.00
2023-03-11T13:37:31.782Z,388.12
2023-03-11T13:38:31.969Z,523.12
2023-03-11T13:39:32.163Z,568.12
2023-03-11T13:40:32.312Z,556.88
2023-03-11T13:41:32.518Z,618.75
2023-03-11T13:42:32.704Z,641.25
2023-03-11T13:43:32.879Z,455.62
2023-03-11T13:44:33.041Z,579.38
2023-03-11T13:45:33.241Z,978.75
2023-03-11T13:46:33.406Z,1035.00
2023-03-11T13:47:33.591Z,506.25
2023-03-11T13:48:36.054Z,556.88
2023-03-11T13:49:34.054Z,618.75
2023-03-11T13:50:34.293Z,596.25
2023-03-11T13:51:34.539Z,528.75
2023-03-11T13:52:34.865Z,545.62
2023-03-11T13:53:35.106Z,658.12
2023-03-11T13:54:35.311Z,1215.00
2023-03-11T13:55:35.493Z,1181.25
2023-03-11T13:56:35.790Z,680.62
2023-03-11T13:57:36.001Z,748.12
2023-03-11T13:58:36.290Z,725.62
2023-03-11T13:59:36.476Z,601.88
2023-03-11T14:00:36.650Z,540.00
2023-03-11T14:01:36.952Z,748.12
2023-03-11T14:02:37.266Z,928.12
2023-03-11T14:03:37.443Z,1136.25
2023-03-11T14:04:37.732Z,663.75
2023-03-11T14:05:37.951Z,776.25
2023-03-11T14:06:38.245Z,753.75
2023-03-11T14:07:38.681Z,731.25
2023-03-11T14:08:38.725Z,1040.62
2023-03-11T14:09:39.027Z,663.75
2023-03-11T14:10:39.311Z,416.25
2023-03-11T14:11:39.495Z,382.50
2023-03-11T14:12:39.706Z,365.62
2023-03-11T14:13:39.981Z,551.25
2023-03-11T14:14:40.169Z,399.38
2023-03-11T14:15:40.354Z,388.12
2023-03-11T14:16:40.560Z,787.50
2023-03-11T14:17:40.741Z,843.75
2023-03-11T14:18:40.913Z,534.38
2023-03-11T14:19:41.081Z,691.88
2023-03-11T14:20:41.540Z,703.12
2023-03-11T14:21:41.671Z,736.88
2023-03-11T14:22:41.871Z,663.75
2023-03-11T14:23:42.148Z,410.62
2023-03-11T14:24:42.345Z,618.75
2023-03-11T14:25:42.519Z,652.50
2023-03-11T14:26:42.704Z,270.00
2023-03-11T14:27:42.916Z,247.50
2023-03-11T14:28:44.957Z,236.25
2023-03-11T14:29:43.368Z,253.12
2023-03-11T14:30:43.661Z,281.25
2023-03-11T14:31:43.995Z,326.25
2023-03-11T14:32:44.179Z,360.00
2023-03-11T14:33:44.313Z,416.25
2023-03-11T14:34:44.617Z,450.00
2023-03-11T14:35:44.890Z,421.88
2023-03-11T14:36:45.092Z,365.62
2023-03-11T14:37:45.334Z,348.75
2023-03-11T14:38:45.445Z,393.75
2023-03-11T14:39:47.685Z,416.25
2023-03-11T14:40:46.058Z,793.12
2023-03-11T14:41:46.280Z,478.12
2023-03-11T14:42:46.592Z,528.75
2023-03-11T14:43:46.743Z,590.62
2023-03-11T14:44:47.035Z,545.62
2023-03-11T14:45:47.326Z,461.25
2023-03-11T14:46:47.507Z,427.50
2023-03-11T14:47:47.728Z,410.62
2023-03-11T14:48:47.989Z,376.88
2023-03-11T14:49:48.169Z,315.00
2023-03-11T14:50:48.388Z,292.50
2023-03-11T14:51:48.524Z,416.25